Cascade Spirit — C6BQ5 — position and weather

sailwx.info

Track history (hours):
 
Tides and Currents Weather Stations Pressure Air Temp Water Temp Dewpoint Dewpoint Depression Visibility Wind Speed Wind Dir Waves Ship Positions

Cascade Spirit

Last reported at 2017-Aug-22 13:01 UTC. Time now 2017-Sep-21 10:47 UTC.
Position N 28°27' W 116°36'.
Warning: this ship's position is 29 days out of date.

Length 275 m; draft 9 m.

Type: Tanker. MMSI: 311000335.

Date/timePositionNaut miles runAvg speedWind from/ knotsBaromVisibWave heightAir tempDewpointWater temp
2017-Aug-22 13:01N 28°27' W 116°36'0 9.1
2017-Aug-22 13:00N 28°27' W 116°36'67 9.0
2017-Aug-22 05:32N 29°30' W 117°02'0 9.3
2017-Aug-22 05:30N 29°30' W 117°03'127 3.9
2017-Aug-20 21:15N 31°30' W 117°54'0 0.8
2017-Aug-20 20:52N 31°30' W 117°54'1 0.1
2017-Aug-20 11:02N 31°30' W 117°54'0 0.2
2017-Aug-20 10:59N 31°30' W 117°54'0 0.3
2017-Aug-20 09:47N 31°31' W 117°54'0 0.3
2017-Aug-20 09:27N 31°31' W 117°54'0 0.3
2017-Aug-20 09:00N 31°31' W 117°54'0 0.4
2017-Aug-20 08:29N 31°31' W 117°54'1 0.4
2017-Aug-20 05:55N 31°32' W 117°54'2 0.5
2017-Aug-20 02:54N 31°34' W 117°53'0 0.8
2017-Aug-20 02:30N 31°34' W 117°53'1 1.7
2017-Aug-20 01:53N 31°35' W 117°53'2 4.3
2017-Aug-20 01:30N 31°36' W 117°51'24 9.5
2017-Aug-19 23:00N 31°54' W 117°33'915.6
2017-Aug-19 22:24N 32°04' W 117°33'613.1
2017-Aug-19 21:55N 32°10' W 117°33'4 8.8
2017-Aug-19 21:29N 32°14' W 117°34'4 8.2
2017-Aug-19 21:00N 32°18' W 117°33'4 8.1
2017-Aug-19 20:30N 32°22' W 117°32'4 8.4
2017-Aug-19 20:00N 32°26' W 117°32'4 8.4
2017-Aug-19 19:30N 32°30' W 117°32'4 8.2
2017-Aug-19 19:00N 32°34' W 117°33'4 8.0
2017-Aug-19 18:30N 32°38' W 117°35'4 8.4
2017-Aug-19 18:00N 32°41' W 117°38'4 8.7
2017-Aug-19 17:30N 32°44' W 117°41'4 8.5
2017-Aug-19 17:00N 32°48' W 117°43'5 9.3
2017-Aug-19 16:30N 32°52' W 117°46'714.1
2017-Aug-19 16:01N 32°58' W 117°51'714.7
2017-Aug-19 15:31N 33°04' W 117°56'714.6
2017-Aug-19 15:00N 33°11' W 118°00'1111.0
2017-Aug-19 14:00N 33°20' W 118°07'510.1
2017-Aug-19 13:30N 33°25' W 118°09'4 8.9
2017-Aug-19 13:00N 33°29' W 118°11'5 9.5
2017-Aug-19 12:30N 33°33' W 118°13'5 9.3
2017-Aug-19 12:00N 33°38' W 118°11'3 6.1
2017-Aug-19 11:30N 33°40' W 118°08'1 1.5
2017-Aug-19 10:56N 33°40' W 118°07'0 0.0
2017-Aug-19 10:29N 33°40' W 118°07'0 0.0
2017-Aug-19 09:59N 33°40' W 118°07'0 0.0
2017-Aug-19 09:29N 33°40' W 118°07'0 0.1
2017-Aug-19 08:59N 33°40' W 118°07'0 0.1
2017-Aug-19 08:29N 33°40' W 118°07'0 0.0
2017-Aug-19 07:53N 33°40' W 118°07'0 0.0
2017-Aug-19 07:29N 33°40' W 118°07'0 0.0
2017-Aug-19 06:56N 33°40' W 118°07'0 0.0
2017-Aug-19 06:26N 33°40' W 118°07'0 0.0
2017-Aug-19 05:59N 33°40' W 118°07'0 0.0
2017-Aug-19 05:29N 33°40' W 118°07'0 0.0
2017-Aug-19 04:59N 33°40' W 118°07'0 0.0
2017-Aug-19 04:26N 33°40' W 118°07'0 0.0
2017-Aug-19 03:59N 33°40' W 118°07'0 0.0
2017-Aug-19 03:26N 33°40' W 118°07'0 0.0
2017-Aug-19 02:59N 33°40' W 118°07'0 0.1
2017-Aug-19 02:29N 33°40' W 118°07'0 0.0
2017-Aug-19 01:59N 33°40' W 118°07'0 0.0
2017-Aug-19 01:29N 33°40' W 118°07'0 0.0
2017-Aug-19 00:59N 33°40' W 118°07'0 0.0
2017-Aug-19 00:29N 33°40' W 118°07'0 0.0
2017-Aug-18 23:56N 33°40' W 118°07'0 0.0
2017-Aug-18 23:29N 33°40' W 118°07'0 0.0
2017-Aug-18 22:59N 33°40' W 118°07'0 0.1
2017-Aug-18 22:23N 33°40' W 118°07'0 0.0
2017-Aug-18 21:59N 33°40' W 118°07'0 0.1
2017-Aug-18 21:29N 33°40' W 118°07'0 0.0
2017-Aug-18 20:59N 33°40' W 118°07'0 0.0
2017-Aug-18 20:29N 33°40' W 118°07'0 0.0
2017-Aug-18 19:59N 33°40' W 118°07'0 0.0
2017-Aug-18 19:29N 33°40' W 118°07'0 0.0
2017-Aug-18 18:59N 33°40' W 118°07'0 0.0
2017-Aug-18 18:29N 33°40' W 118°07'0 0.0
2017-Aug-18 17:59N 33°40' W 118°07'0 0.0
2017-Aug-18 17:29N 33°40' W 118°07'0 0.0
2017-Aug-18 16:59N 33°40' W 118°07'0 0.0
2017-Aug-18 16:29N 33°40' W 118°07'0 0.0
2017-Aug-18 15:59N 33°40' W 118°07'0 0.0
2017-Aug-18 15:29N 33°40' W 118°07'0 0.0
2017-Aug-18 14:59N 33°40' W 118°07'0 0.0
2017-Aug-18 14:29N 33°40' W 118°07'0 0.1
2017-Aug-18 13:29N 33°40' W 118°07'0 0.2
2017-Aug-18 12:59N 33°40' W 118°08'0 0.4
2017-Aug-18 12:30N 33°40' W 118°08'2 3.7
2017-Aug-18 11:58N 33°38' W 118°09'2 5.1
2017-Aug-18 11:30N 33°36' W 118°10'4 7.5
2017-Aug-18 11:00N 33°32' W 118°08'4 9.0
2017-Aug-18 10:30N 33°28' W 118°06'5 9.0
2017-Aug-18 10:00N 33°24' W 118°05'510.0
2017-Aug-18 09:30N 33°19' W 118°02'510.3
2017-Aug-18 09:00N 33°15' W 117°59'510.1
2017-Aug-18 08:30N 33°10' W 117°56'5 9.7
2017-Aug-18 08:00N 33°06' W 117°53'5 9.6
2017-Aug-18 07:30N 33°02' W 117°50'5 9.5
2017-Aug-18 07:00N 32°58' W 117°47'5 9.3
2017-Aug-18 06:30N 32°54' W 117°45'5 9.3
2017-Aug-18 06:00N 32°51' W 117°41'4 8.8
2017-Aug-18 05:30N 32°47' W 117°39'4 8.6
2017-Aug-18 05:00N 32°43' W 117°37'5 9.2
2017-Aug-18 04:30N 32°38' W 117°35'5 9.2
2017-Aug-18 04:00N 32°34' W 117°33'5 9.4
2017-Aug-18 03:30N 32°29' W 117°32'5 9.5
2017-Aug-18 03:00N 32°25' W 117°32'5 9.4
2017-Aug-18 02:30N 32°20' W 117°32'2 3.9
2017-Aug-18 02:00N 32°19' W 117°34'5 9.7
2017-Aug-18 01:30N 32°14' W 117°33'612.4
2017-Aug-18 01:00N 32°08' W 117°33'612.4
2017-Aug-18 00:30N 32°01' W 117°33'711.6
2017-Aug-17 23:56N 31°55' W 117°34'510.5
2017-Aug-17 23:30N 31°50' W 117°35'610.8
2017-Aug-17 22:59N 31°46' W 117°40'611.5
2017-Aug-17 22:28N 31°43' W 117°45'511.5
2017-Aug-17 22:00N 31°42' W 117°51'611.6
2017-Aug-17 21:28N 31°40' W 117°58'511.4
2017-Aug-17 21:00N 31°38' W 118°04'611.6
2017-Aug-17 20:30N 31°35' W 118°10'612.4
2017-Aug-17 20:00N 31°32' W 118°17'713.4
2017-Aug-17 19:30N 31°29' W 118°23'713.2
2017-Aug-17 19:00N 31°25' W 118°30'713.2
2017-Aug-17 18:30N 31°21' W 118°36'612.3
2017-Aug-17 18:00N 31°18' W 118°42'3 5.2
2017-Aug-17 17:30N 31°17' W 118°45'1 1.8
2017-Aug-17 17:00N 31°18' W 118°46'1 1.9
2017-Aug-17 16:30N 31°18' W 118°47'1 1.9
2017-Aug-17 16:00N 31°18' W 118°48'1 1.4
2017-Aug-17 15:30N 31°18' W 118°49'1 1.7
2017-Aug-17 15:00N 31°18' W 118°50'1 2.4
2017-Aug-17 14:30N 31°19' W 118°51'1 1.6
2017-Aug-17 14:00N 31°19' W 118°51'1 1.6
2017-Aug-17 13:29N 31°20' W 118°52'1 2.4
2017-Aug-17 13:00N 31°21' W 118°53'1 1.9
2017-Aug-17 12:30N 31°22' W 118°54'1 2.5
2017-Aug-17 12:00N 31°23' W 118°55'1 1.9
2017-Aug-17 11:29N 31°23' W 118°55'1 1.2
2017-Aug-17 11:00N 31°24' W 118°56'1 1.8
2017-Aug-17 10:27N 31°25' W 118°57'1 2.2
2017-Aug-17 09:55N 31°25' W 118°57'1 1.9
2017-Aug-17 09:28N 31°26' W 118°58'1 2.2
2017-Aug-17 08:59N 31°27' W 118°59'2 2.1
2017-Aug-17 08:07N 31°28' W 119°00'0 2.1
2017-Aug-17 07:58N 31°29' W 119°00'1 2.3
2017-Aug-17 07:25N 31°30' W 119°01'1 2.0
2017-Aug-17 07:00N 31°30' W 119°02'1 2.5
2017-Aug-17 06:30N 31°31' W 119°03'1 2.6
2017-Aug-17 06:00N 31°32' W 119°04'1 2.1
2017-Aug-17 05:30N 31°33' W 119°04'1 2.6
2017-Aug-17 05:00N 31°34' W 119°05'1 1.9
2017-Aug-17 04:30N 31°35' W 119°06'1 1.9
2017-Aug-17 04:00N 31°36' W 119°07'1 2.1
2017-Aug-17 03:30N 31°36' W 119°08'1 2.9
2017-Aug-17 03:00N 31°38' W 119°09'1 2.6
2017-Aug-17 02:30N 31°39' W 119°09'1 2.2
2017-Aug-17 02:00N 31°40' W 119°10'1 2.1
2017-Aug-17 01:29N 31°41' W 119°11'1 2.1
2017-Aug-17 01:00N 31°41' W 119°11'1 1.9
2017-Aug-17 00:30N 31°42' W 119°12'1 1.9
2017-Aug-17 00:00N 31°43' W 119°13'1 2.0
2017-Aug-16 23:30N 31°44' W 119°13'1 2.0
2017-Aug-16 23:00N 31°45' W 119°14'1 1.9
2017-Aug-16 22:30N 31°45' W 119°15'1 1.9
2017-Aug-16 22:00N 31°46' W 119°15'1 1.8
2017-Aug-16 21:30N 31°47' W 119°16'1 1.8
2017-Aug-16 21:00N 31°48' W 119°17'1 1.7
2017-Aug-16 20:30N 31°48' W 119°17'1 1.7
2017-Aug-16 20:00N 31°49' W 119°18'1 2.0
2017-Aug-16 19:30N 31°50' W 119°19'1 1.7
2017-Aug-16 19:00N 31°50' W 119°19'1 1.5
2017-Aug-16 18:30N 31°51' W 119°20'1 2.4
2017-Aug-16 18:00N 31°52' W 119°21'3 5.2
2017-Aug-16 17:30N 31°54' W 119°22'3 5.8
2017-Aug-16 17:00N 31°56' W 119°25'2 4.2
2017-Aug-16 16:26N 31°58' W 119°26'1 2.4
2017-Aug-16 16:00N 31°59' W 119°27'1 2.4
2017-Aug-16 15:30N 31°60' W 119°28'0 0.7
2017-Aug-16 15:00N 31°60' W 119°29'1 0.9
2017-Aug-16 14:21N 31°60' W 119°29'1 1.5
2017-Aug-16 13:29N 32°00' W 119°31'2 4.6
2017-Aug-16 13:00N 32°00' W 119°33'1 3.0
2017-Aug-16 12:30N 32°01' W 119°35'0 0.6
2017-Aug-16 12:00N 32°01' W 119°35'0 0.7
2017-Aug-16 11:29N 32°01' W 119°35'0 0.7
2017-Aug-16 11:00N 32°02' W 119°35'0 0.7
2017-Aug-16 10:30N 32°02' W 119°35'0 0.8
2017-Aug-16 09:56N 32°02' W 119°35'0 1.0
2017-Aug-16 09:30N 32°03' W 119°35'1 1.1
2017-Aug-16 08:59N 32°03' W 119°34'1 1.2
2017-Aug-16 08:30N 32°04' W 119°34'1 1.3
2017-Aug-16 08:00N 32°05' W 119°34'1 1.4
2017-Aug-16 07:30N 32°05' W 119°34'1 1.4
2017-Aug-16 06:53N 32°06' W 119°34'1 1.4
2017-Aug-16 06:30N 32°07' W 119°34'1 1.4
2017-Aug-16 06:00N 32°07' W 119°34'1 1.4
2017-Aug-16 05:30N 32°08' W 119°34'1 1.5
2017-Aug-16 04:58N 32°09' W 119°35'1 1.3
2017-Aug-16 04:28N 32°09' W 119°35'1 1.1
2017-Aug-16 04:00N 32°09' W 119°35'1 1.5
2017-Aug-16 03:30N 32°10' W 119°36'1 1.7
2017-Aug-16 03:00N 32°10' W 119°37'1 1.6
2017-Aug-16 02:30N 32°10' W 119°38'1 1.5
2017-Aug-16 02:00N 32°11' W 119°39'1 1.5
2017-Aug-16 01:30N 32°11' W 119°39'1 1.5
2017-Aug-16 01:00N 32°11' W 119°40'1 1.6
2017-Aug-16 00:30N 32°11' W 119°41'1 1.4
2017-Aug-16 00:00N 32°11' W 119°42'1 1.5
2017-Aug-15 23:30N 32°11' W 119°43'1 1.6
2017-Aug-15 23:00N 32°12' W 119°44'1 1.5
2017-Aug-15 22:30N 32°12' W 119°45'1 1.5
2017-Aug-15 22:00N 32°12' W 119°45'1 1.5
2017-Aug-15 21:29N 32°12' W 119°46'1 1.4
2017-Aug-15 20:57N 32°12' W 119°47'1 1.4
2017-Aug-15 20:30N 32°12' W 119°48'1 1.5
2017-Aug-15 20:00N 32°13' W 119°49'1 1.5
2017-Aug-15 19:26N 32°13' W 119°50'1 1.5
2017-Aug-15 18:53N 32°13' W 119°51'1 1.7
2017-Aug-15 18:30N 32°12' W 119°51'1 2.5
2017-Aug-15 17:56N 32°11' W 119°52'511.1
2017-Aug-15 17:30N 32°09' W 119°47'612.0
2017-Aug-15 17:00N 32°06' W 119°41'612.0
2017-Aug-15 16:30N 32°03' W 119°35'4 8.9
2017-Aug-15 16:00N 32°00' W 119°31'4 7.7
2017-Aug-15 15:30N 31°59' W 119°27'4 7.9
2017-Aug-15 15:00N 31°57' W 119°22'4 8.0
2017-Aug-15 14:30N 31°55' W 119°18'4 8.1
2017-Aug-15 14:00N 31°54' W 119°14'4 7.9
2017-Aug-15 13:30N 31°52' W 119°09'4 8.0
2017-Aug-15 13:00N 31°51' W 119°05'4 8.3
2017-Aug-15 12:29N 31°49' W 119°00'19 8.2
2017-Aug-15 10:14N 31°42' W 118°40'3 7.9
2017-Aug-15 09:47N 31°40' W 118°36'3 7.6
2017-Aug-15 09:22N 31°39' W 118°33'3 7.8
2017-Aug-15 09:00N 31°38' W 118°30'4 7.9
2017-Aug-15 08:28N 31°36' W 118°25'4 8.0
2017-Aug-15 07:56N 31°34' W 118°21'3 7.9
2017-Aug-15 07:30N 31°33' W 118°17'4 7.9
2017-Aug-15 07:00N 31°31' W 118°13'4 7.9
2017-Aug-15 06:30N 31°30' W 118°09'4 8.2
2017-Aug-15 06:00N 31°29' W 118°04'11 7.8
2017-Aug-15 04:37N 31°23' W 117°53'1 5.4
2017-Aug-15 04:30N 31°23' W 117°53'0 0.4
2017-Aug-15 04:00N 31°23' W 117°53'1 1.3
2017-Aug-15 03:30N 31°24' W 117°53'1 1.3
2017-Aug-15 03:00N 31°24' W 117°54'1 1.3
2017-Aug-15 02:30N 31°24' W 117°54'1 1.2
2017-Aug-15 02:00N 31°25' W 117°55'1 1.4
2017-Aug-15 01:30N 31°25' W 117°56'1 1.2
2017-Aug-15 01:00N 31°26' W 117°56'1 1.2
2017-Aug-15 00:30N 31°26' W 117°57'1 1.0
2017-Aug-15 00:00N 31°26' W 117°57'0 1.0
2017-Aug-14 23:30N 31°26' W 117°58'0 0.9
2017-Aug-14 23:00N 31°27' W 117°58'0 1.0
2017-Aug-14 22:30N 31°27' W 117°59'0 0.8
2017-Aug-14 22:00N 31°27' W 117°59'0 0.8
2017-Aug-14 21:30N 31°27' W 117°60'0 0.9
2017-Aug-14 21:00N 31°27' W 118°00'0 0.9
2017-Aug-14 20:30N 31°27' W 118°01'1 1.0
2017-Aug-14 20:00N 31°27' W 118°01'0 0.9
2017-Aug-14 19:30N 31°27' W 118°02'0 0.9
2017-Aug-14 19:00N 31°27' W 118°02'1 1.0
2017-Aug-14 18:30N 31°27' W 118°03'0 0.8
2017-Aug-14 18:00N 31°27' W 118°03'0 0.8
2017-Aug-14 17:30N 31°27' W 118°04'0 0.7
2017-Aug-14 17:00N 31°27' W 118°04'0 0.8
2017-Aug-14 16:30N 31°27' W 118°05'0 0.7
2017-Aug-14 16:00N 31°27' W 118°05'0 0.7
2017-Aug-14 15:30N 31°27' W 118°06'0 0.6
2017-Aug-14 15:00N 31°27' W 118°06'0 0.5
2017-Aug-14 14:30N 31°27' W 118°06'0 0.6
2017-Aug-14 14:00N 31°27' W 118°07'0 0.5
2017-Aug-14 13:30N 31°27' W 118°07'0 0.6
2017-Aug-14 13:00N 31°27' W 118°07'0 0.6
2017-Aug-14 12:30N 31°27' W 118°08'0 0.5
2017-Aug-14 12:00N 31°27' W 118°08'0 0.5
2017-Aug-14 11:30N 31°27' W 118°08'0 0.7
2017-Aug-14 11:00N 31°27' W 118°09'0 0.5
2017-Aug-14 10:30N 31°27' W 118°09'0 0.6
2017-Aug-14 10:00N 31°27' W 118°09'0 0.5
2017-Aug-14 09:30N 31°27' W 118°10'0 0.7
2017-Aug-14 09:00N 31°27' W 118°10'0 0.7
2017-Aug-14 08:30N 31°27' W 118°10'0 0.7
2017-Aug-14 08:00N 31°28' W 118°11'0 0.9
2017-Aug-14 07:30N 31°28' W 118°11'1 1.0
2017-Aug-14 07:00N 31°28' W 118°12'1 1.2
2017-Aug-14 06:30N 31°28' W 118°12'1 1.3
2017-Aug-14 06:00N 31°28' W 118°13'1 1.3
2017-Aug-14 05:30N 31°29' W 118°14'1 1.3
2017-Aug-14 05:00N 31°29' W 118°15'1 1.5
2017-Aug-14 04:30N 31°29' W 118°16'1 1.6
2017-Aug-14 04:00N 31°29' W 118°17'1 1.7
2017-Aug-14 03:30N 31°29' W 118°18'1 1.8
2017-Aug-14 03:00N 31°29' W 118°19'1 1.9
2017-Aug-14 02:30N 31°29' W 118°20'1 1.9
2017-Aug-14 02:00N 31°28' W 118°21'1 1.8
2017-Aug-14 01:30N 31°28' W 118°22'1 1.7
2017-Aug-14 01:00N 31°28' W 118°23'1 1.6
2017-Aug-14 00:30N 31°28' W 118°24'1 1.5
2017-Aug-14 00:00N 31°28' W 118°25'1 1.4
2017-Aug-13 23:30N 31°28' W 118°25'1 1.5
2017-Aug-13 23:00N 31°28' W 118°26'1 1.5
2017-Aug-13 22:30N 31°28' W 118°27'1 1.4
2017-Aug-13 22:00N 31°27' W 118°28'1 1.5
2017-Aug-13 21:30N 31°27' W 118°29'1 1.5
2017-Aug-13 21:00N 31°27' W 118°30'1 1.4
2017-Aug-13 20:30N 31°27' W 118°31'1 1.6
2017-Aug-13 20:00N 31°27' W 118°31'1 1.5
2017-Aug-13 19:30N 31°27' W 118°32'1 1.6
2017-Aug-13 19:00N 31°27' W 118°33'1 1.6
2017-Aug-13 18:30N 31°27' W 118°34'1 1.6
2017-Aug-13 18:00N 31°27' W 118°35'1 1.6
2017-Aug-13 17:30N 31°26' W 118°36'1 1.5
2017-Aug-13 17:00N 31°26' W 118°37'1 1.4
2017-Aug-13 16:30N 31°26' W 118°38'1 1.5
2017-Aug-13 16:00N 31°26' W 118°39'1 1.4
2017-Aug-13 15:30N 31°26' W 118°39'1 1.4
2017-Aug-13 15:00N 31°26' W 118°40'1 1.3
2017-Aug-13 14:30N 31°26' W 118°41'1 1.5
2017-Aug-13 14:00N 31°27' W 118°42'1 1.4
2017-Aug-13 13:30N 31°27' W 118°43'1 1.3
2017-Aug-13 13:00N 31°27' W 118°43'1 1.2
2017-Aug-13 12:30N 31°27' W 118°44'1 1.2
2017-Aug-13 12:00N 31°27' W 118°45'1 1.2
2017-Aug-13 11:29N 31°27' W 118°46'1 1.3
2017-Aug-13 11:00N 31°27' W 118°46'1 1.3
2017-Aug-13 10:30N 31°27' W 118°47'1 1.2
2017-Aug-13 10:00N 31°27' W 118°48'1 1.1
2017-Aug-13 09:30N 31°27' W 118°48'1 1.2
2017-Aug-13 08:59N 31°28' W 118°49'1 1.4
2017-Aug-13 08:28N 31°28' W 118°50'1 1.5
2017-Aug-13 08:00N 31°28' W 118°51'1 1.5
2017-Aug-13 07:29N 31°29' W 118°51'1 1.4
2017-Aug-13 07:00N 31°29' W 118°52'1 1.4
2017-Aug-13 06:30N 31°30' W 118°53'1 1.3
2017-Aug-13 06:00N 31°30' W 118°53'1 2.2
2017-Aug-13 05:30N 31°30' W 118°54'2 3.1
2017-Aug-13 05:00N 31°32' W 118°55'1 1.8
2017-Aug-13 04:29N 31°32' W 118°56'1 1.7
2017-Aug-13 04:00N 31°33' W 118°56'1 2.0
2017-Aug-13 03:28N 31°34' W 118°57'1 2.3
2017-Aug-13 03:00N 31°35' W 118°58'1 2.6
2017-Aug-13 02:30N 31°36' W 118°59'1 1.9
2017-Aug-13 01:57N 31°37' W 118°60'1 2.2
2017-Aug-13 01:27N 31°37' W 119°01'1 2.5
2017-Aug-13 00:59N 31°38' W 119°02'1 2.5
2017-Aug-13 00:30N 31°39' W 119°02'2 2.2
2017-Aug-12 23:43N 31°41' W 119°04'1 2.4
2017-Aug-12 23:28N 31°41' W 119°04'1 2.6
2017-Aug-12 23:00N 31°42' W 119°05'1 2.3
2017-Aug-12 22:30N 31°43' W 119°06'1 1.8
2017-Aug-12 21:56N 31°43' W 119°07'1 1.7
2017-Aug-12 21:30N 31°44' W 119°08'1 1.6
2017-Aug-12 20:58N 31°44' W 119°09'1 1.7
2017-Aug-12 20:28N 31°45' W 119°09'1 1.9
2017-Aug-12 19:55N 31°46' W 119°10'1 2.1
2017-Aug-12 19:30N 31°46' W 119°11'1 2.2
2017-Aug-12 19:00N 31°47' W 119°12'1 2.5
2017-Aug-12 18:30N 31°48' W 119°13'1 1.4
2017-Aug-12 18:00N 31°48' W 119°14'1 1.7
2017-Aug-12 17:30N 31°49' W 119°14'1 1.8
2017-Aug-12 17:00N 31°49' W 119°15'1 2.1
2017-Aug-12 16:30N 31°50' W 119°16'1 2.6
2017-Aug-12 16:00N 31°51' W 119°17'2 4.8
2017-Aug-12 15:30N 31°52' W 119°19'3 5.9
2017-Aug-12 15:00N 31°54' W 119°22'3 5.3
2017-Aug-12 14:30N 31°56' W 119°24'1 1.7
2017-Aug-12 14:00N 31°57' W 119°25'1 1.6
2017-Aug-12 13:30N 31°57' W 119°26'  
Track history (hours):
 
Tides and Currents Weather Stations Pressure Air Temp Water Temp Dewpoint Dewpoint Depression Visibility Wind Speed Wind Dir Waves Ship Positions

Cascade Spirit

Last reported at 2017-Aug-22 13:01 UTC. Time now 2017-Sep-21 10:47 UTC.
Position N 28°27' W 116°36'.
Warning: this ship's position is 29 days out of date.

Length 275 m; draft 9 m.

Type: Tanker. MMSI: 311000335.

Date/timePositionNaut miles runAvg speedWind from/ knotsBaromVisibWave heightAir tempDewpointWater temp
2017-Aug-22 13:01N 28°27' W 116°36'0 9.1
2017-Aug-22 13:00N 28°27' W 116°36'67 9.0
2017-Aug-22 05:32N 29°30' W 117°02'0 9.3
2017-Aug-22 05:30N 29°30' W 117°03'127 3.9
2017-Aug-20 21:15N 31°30' W 117°54'0 0.8
2017-Aug-20 20:52N 31°30' W 117°54'1 0.1
2017-Aug-20 11:02N 31°30' W 117°54'0 0.2
2017-Aug-20 10:59N 31°30' W 117°54'0 0.3
2017-Aug-20 09:47N 31°31' W 117°54'0 0.3
2017-Aug-20 09:27N 31°31' W 117°54'0 0.3
2017-Aug-20 09:00N 31°31' W 117°54'0 0.4
2017-Aug-20 08:29N 31°31' W 117°54'1 0.4
2017-Aug-20 05:55N 31°32' W 117°54'2 0.5
2017-Aug-20 02:54N 31°34' W 117°53'0 0.8
2017-Aug-20 02:30N 31°34' W 117°53'1 1.7
2017-Aug-20 01:53N 31°35' W 117°53'2 4.3
2017-Aug-20 01:30N 31°36' W 117°51'24 9.5
2017-Aug-19 23:00N 31°54' W 117°33'915.6
2017-Aug-19 22:24N 32°04' W 117°33'613.1
2017-Aug-19 21:55N 32°10' W 117°33'4 8.8
2017-Aug-19 21:29N 32°14' W 117°34'4 8.2
2017-Aug-19 21:00N 32°18' W 117°33'4 8.1
2017-Aug-19 20:30N 32°22' W 117°32'4 8.4
2017-Aug-19 20:00N 32°26' W 117°32'4 8.4
2017-Aug-19 19:30N 32°30' W 117°32'4 8.2
2017-Aug-19 19:00N 32°34' W 117°33'4 8.0
2017-Aug-19 18:30N 32°38' W 117°35'4 8.4
2017-Aug-19 18:00N 32°41' W 117°38'4 8.7
2017-Aug-19 17:30N 32°44' W 117°41'4 8.5
2017-Aug-19 17:00N 32°48' W 117°43'5 9.3
2017-Aug-19 16:30N 32°52' W 117°46'714.1
2017-Aug-19 16:01N 32°58' W 117°51'714.7
2017-Aug-19 15:31N 33°04' W 117°56'714.6
2017-Aug-19 15:00N 33°11' W 118°00'1111.0
2017-Aug-19 14:00N 33°20' W 118°07'510.1
2017-Aug-19 13:30N 33°25' W 118°09'4 8.9
2017-Aug-19 13:00N 33°29' W 118°11'5 9.5
2017-Aug-19 12:30N 33°33' W 118°13'5 9.3
2017-Aug-19 12:00N 33°38' W 118°11'3 6.1
2017-Aug-19 11:30N 33°40' W 118°08'1 1.5
2017-Aug-19 10:56N 33°40' W 118°07'0 0.0
2017-Aug-19 10:29N 33°40' W 118°07'0 0.0
2017-Aug-19 09:59N 33°40' W 118°07'0 0.0
2017-Aug-19 09:29N 33°40' W 118°07'0 0.1
2017-Aug-19 08:59N 33°40' W 118°07'0 0.1
2017-Aug-19 08:29N 33°40' W 118°07'0 0.0
2017-Aug-19 07:53N 33°40' W 118°07'0 0.0
2017-Aug-19 07:29N 33°40' W 118°07'0 0.0
2017-Aug-19 06:56N 33°40' W 118°07'0 0.0
2017-Aug-19 06:26N 33°40' W 118°07'0 0.0
2017-Aug-19 05:59N 33°40' W 118°07'0 0.0
2017-Aug-19 05:29N 33°40' W 118°07'0 0.0
2017-Aug-19 04:59N 33°40' W 118°07'0 0.0
2017-Aug-19 04:26N 33°40' W 118°07'0 0.0
2017-Aug-19 03:59N 33°40' W 118°07'0 0.0
2017-Aug-19 03:26N 33°40' W 118°07'0 0.0
2017-Aug-19 02:59N 33°40' W 118°07'0 0.1
2017-Aug-19 02:29N 33°40' W 118°07'0 0.0
2017-Aug-19 01:59N 33°40' W 118°07'0 0.0
2017-Aug-19 01:29N 33°40' W 118°07'0 0.0
2017-Aug-19 00:59N 33°40' W 118°07'0 0.0
2017-Aug-19 00:29N 33°40' W 118°07'0 0.0
2017-Aug-18 23:56N 33°40' W 118°07'0 0.0
2017-Aug-18 23:29N 33°40' W 118°07'0 0.0
2017-Aug-18 22:59N 33°40' W 118°07'0 0.1
2017-Aug-18 22:23N 33°40' W 118°07'0 0.0
2017-Aug-18 21:59N 33°40' W 118°07'0 0.1
2017-Aug-18 21:29N 33°40' W 118°07'0 0.0
2017-Aug-18 20:59N 33°40' W 118°07'0 0.0
2017-Aug-18 20:29N 33°40' W 118°07'0 0.0
2017-Aug-18 19:59N 33°40' W 118°07'0 0.0
2017-Aug-18 19:29N 33°40' W 118°07'0 0.0
2017-Aug-18 18:59N 33°40' W 118°07'0 0.0
2017-Aug-18 18:29N 33°40' W 118°07'0 0.0
2017-Aug-18 17:59N 33°40' W 118°07'0 0.0
2017-Aug-18 17:29N 33°40' W 118°07'0 0.0
2017-Aug-18 16:59N 33°40' W 118°07'0 0.0
2017-Aug-18 16:29N 33°40' W 118°07'0 0.0
2017-Aug-18 15:59N 33°40' W 118°07'0 0.0
2017-Aug-18 15:29N 33°40' W 118°07'0 0.0
2017-Aug-18 14:59N 33°40' W 118°07'0 0.0
2017-Aug-18 14:29N 33°40' W 118°07'0 0.1
2017-Aug-18 13:29N 33°40' W 118°07'0 0.2
2017-Aug-18 12:59N 33°40' W 118°08'0 0.4
2017-Aug-18 12:30N 33°40' W 118°08'2 3.7
2017-Aug-18 11:58N 33°38' W 118°09'2 5.1
2017-Aug-18 11:30N 33°36' W 118°10'4 7.5
2017-Aug-18 11:00N 33°32' W 118°08'4 9.0
2017-Aug-18 10:30N 33°28' W 118°06'5 9.0
2017-Aug-18 10:00N 33°24' W 118°05'510.0
2017-Aug-18 09:30N 33°19' W 118°02'510.3
2017-Aug-18 09:00N 33°15' W 117°59'510.1
2017-Aug-18 08:30N 33°10' W 117°56'5 9.7
2017-Aug-18 08:00N 33°06' W 117°53'5 9.6
2017-Aug-18 07:30N 33°02' W 117°50'5 9.5
2017-Aug-18 07:00N 32°58' W 117°47'5 9.3
2017-Aug-18 06:30N 32°54' W 117°45'5 9.3
2017-Aug-18 06:00N 32°51' W 117°41'4 8.8
2017-Aug-18 05:30N 32°47' W 117°39'4 8.6
2017-Aug-18 05:00N 32°43' W 117°37'5 9.2
2017-Aug-18 04:30N 32°38' W 117°35'5 9.2
2017-Aug-18 04:00N 32°34' W 117°33'5 9.4
2017-Aug-18 03:30N 32°29' W 117°32'5 9.5
2017-Aug-18 03:00N 32°25' W 117°32'5 9.4
2017-Aug-18 02:30N 32°20' W 117°32'2 3.9
2017-Aug-18 02:00N 32°19' W 117°34'5 9.7
2017-Aug-18 01:30N 32°14' W 117°33'612.4
2017-Aug-18 01:00N 32°08' W 117°33'612.4
2017-Aug-18 00:30N 32°01' W 117°33'711.6
2017-Aug-17 23:56N 31°55' W 117°34'510.5
2017-Aug-17 23:30N 31°50' W 117°35'610.8
2017-Aug-17 22:59N 31°46' W 117°40'611.5
2017-Aug-17 22:28N 31°43' W 117°45'511.5
2017-Aug-17 22:00N 31°42' W 117°51'611.6
2017-Aug-17 21:28N 31°40' W 117°58'511.4
2017-Aug-17 21:00N 31°38' W 118°04'611.6
2017-Aug-17 20:30N 31°35' W 118°10'612.4
2017-Aug-17 20:00N 31°32' W 118°17'713.4
2017-Aug-17 19:30N 31°29' W 118°23'713.2
2017-Aug-17 19:00N 31°25' W 118°30'713.2
2017-Aug-17 18:30N 31°21' W 118°36'612.3
2017-Aug-17 18:00N 31°18' W 118°42'3 5.2
2017-Aug-17 17:30N 31°17' W 118°45'1 1.8
2017-Aug-17 17:00N 31°18' W 118°46'1 1.9
2017-Aug-17 16:30N 31°18' W 118°47'1 1.9
2017-Aug-17 16:00N 31°18' W 118°48'1 1.4
2017-Aug-17 15:30N 31°18' W 118°49'1 1.7
2017-Aug-17 15:00N 31°18' W 118°50'1 2.4
2017-Aug-17 14:30N 31°19' W 118°51'1 1.6
2017-Aug-17 14:00N 31°19' W 118°51'1 1.6
2017-Aug-17 13:29N 31°20' W 118°52'1 2.4
2017-Aug-17 13:00N 31°21' W 118°53'1 1.9
2017-Aug-17 12:30N 31°22' W 118°54'1 2.5
2017-Aug-17 12:00N 31°23' W 118°55'1 1.9
2017-Aug-17 11:29N 31°23' W 118°55'1 1.2
2017-Aug-17 11:00N 31°24' W 118°56'1 1.8
2017-Aug-17 10:27N 31°25' W 118°57'1 2.2
2017-Aug-17 09:55N 31°25' W 118°57'1 1.9
2017-Aug-17 09:28N 31°26' W 118°58'1 2.2
2017-Aug-17 08:59N 31°27' W 118°59'2 2.1
2017-Aug-17 08:07N 31°28' W 119°00'0 2.1
2017-Aug-17 07:58N 31°29' W 119°00'1 2.3
2017-Aug-17 07:25N 31°30' W 119°01'1 2.0
2017-Aug-17 07:00N 31°30' W 119°02'1 2.5
2017-Aug-17 06:30N 31°31' W 119°03'1 2.6
2017-Aug-17 06:00N 31°32' W 119°04'1 2.1
2017-Aug-17 05:30N 31°33' W 119°04'1 2.6
2017-Aug-17 05:00N 31°34' W 119°05'1 1.9
2017-Aug-17 04:30N 31°35' W 119°06'1 1.9
2017-Aug-17 04:00N 31°36' W 119°07'1 2.1
2017-Aug-17 03:30N 31°36' W 119°08'1 2.9
2017-Aug-17 03:00N 31°38' W 119°09'1 2.6
2017-Aug-17 02:30N 31°39' W 119°09'1 2.2
2017-Aug-17 02:00N 31°40' W 119°10'1 2.1
2017-Aug-17 01:29N 31°41' W 119°11'1 2.1
2017-Aug-17 01:00N 31°41' W 119°11'1 1.9
2017-Aug-17 00:30N 31°42' W 119°12'1 1.9
2017-Aug-17 00:00N 31°43' W 119°13'1 2.0
2017-Aug-16 23:30N 31°44' W 119°13'1 2.0
2017-Aug-16 23:00N 31°45' W 119°14'1 1.9
2017-Aug-16 22:30N 31°45' W 119°15'1 1.9
2017-Aug-16 22:00N 31°46' W 119°15'1 1.8
2017-Aug-16 21:30N 31°47' W 119°16'1 1.8
2017-Aug-16 21:00N 31°48' W 119°17'1 1.7
2017-Aug-16 20:30N 31°48' W 119°17'1 1.7
2017-Aug-16 20:00N 31°49' W 119°18'1 2.0
2017-Aug-16 19:30N 31°50' W 119°19'1 1.7
2017-Aug-16 19:00N 31°50' W 119°19'1 1.5
2017-Aug-16 18:30N 31°51' W 119°20'1 2.4
2017-Aug-16 18:00N 31°52' W 119°21'3 5.2
2017-Aug-16 17:30N 31°54' W 119°22'3 5.8
2017-Aug-16 17:00N 31°56' W 119°25'2 4.2
2017-Aug-16 16:26N 31°58' W 119°26'1 2.4
2017-Aug-16 16:00N 31°59' W 119°27'1 2.4
2017-Aug-16 15:30N 31°60' W 119°28'0 0.7
2017-Aug-16 15:00N 31°60' W 119°29'1 0.9
2017-Aug-16 14:21N 31°60' W 119°29'1 1.5
2017-Aug-16 13:29N 32°00' W 119°31'2 4.6
2017-Aug-16 13:00N 32°00' W 119°33'1 3.0
2017-Aug-16 12:30N 32°01' W 119°35'0 0.6
2017-Aug-16 12:00N 32°01' W 119°35'0 0.7
2017-Aug-16 11:29N 32°01' W 119°35'0 0.7
2017-Aug-16 11:00N 32°02' W 119°35'0 0.7
2017-Aug-16 10:30N 32°02' W 119°35'0 0.8
2017-Aug-16 09:56N 32°02' W 119°35'0 1.0
2017-Aug-16 09:30N 32°03' W 119°35'1 1.1
2017-Aug-16 08:59N 32°03' W 119°34'1 1.2
2017-Aug-16 08:30N 32°04' W 119°34'1 1.3
2017-Aug-16 08:00N 32°05' W 119°34'1 1.4
2017-Aug-16 07:30N 32°05' W 119°34'1 1.4
2017-Aug-16 06:53N 32°06' W 119°34'1 1.4
2017-Aug-16 06:30N 32°07' W 119°34'1 1.4
2017-Aug-16 06:00N 32°07' W 119°34'1 1.4
2017-Aug-16 05:30N 32°08' W 119°34'1 1.5
2017-Aug-16 04:58N 32°09' W 119°35'1 1.3
2017-Aug-16 04:28N 32°09' W 119°35'1 1.1
2017-Aug-16 04:00N 32°09' W 119°35'1 1.5
2017-Aug-16 03:30N 32°10' W 119°36'1 1.7
2017-Aug-16 03:00N 32°10' W 119°37'1 1.6
2017-Aug-16 02:30N 32°10' W 119°38'1 1.5
2017-Aug-16 02:00N 32°11' W 119°39'1 1.5
2017-Aug-16 01:30N 32°11' W 119°39'1 1.5
2017-Aug-16 01:00N 32°11' W 119°40'1 1.6
2017-Aug-16 00:30N 32°11' W 119°41'1 1.4
2017-Aug-16 00:00N 32°11' W 119°42'1 1.5
2017-Aug-15 23:30N 32°11' W 119°43'1 1.6
2017-Aug-15 23:00N 32°12' W 119°44'1 1.5
2017-Aug-15 22:30N 32°12' W 119°45'1 1.5
2017-Aug-15 22:00N 32°12' W 119°45'1 1.5
2017-Aug-15 21:29N 32°12' W 119°46'1 1.4
2017-Aug-15 20:57N 32°12' W 119°47'1 1.4
2017-Aug-15 20:30N 32°12' W 119°48'1 1.5
2017-Aug-15 20:00N 32°13' W 119°49'1 1.5
2017-Aug-15 19:26N 32°13' W 119°50'1 1.5
2017-Aug-15 18:53N 32°13' W 119°51'1 1.7
2017-Aug-15 18:30N 32°12' W 119°51'1 2.5
2017-Aug-15 17:56N 32°11' W 119°52'511.1
2017-Aug-15 17:30N 32°09' W 119°47'612.0
2017-Aug-15 17:00N 32°06' W 119°41'612.0
2017-Aug-15 16:30N 32°03' W 119°35'4 8.9
2017-Aug-15 16:00N 32°00' W 119°31'4 7.7
2017-Aug-15 15:30N 31°59' W 119°27'4 7.9
2017-Aug-15 15:00N 31°57' W 119°22'4 8.0
2017-Aug-15 14:30N 31°55' W 119°18'4 8.1
2017-Aug-15 14:00N 31°54' W 119°14'4 7.9
2017-Aug-15 13:30N 31°52' W 119°09'4 8.0
2017-Aug-15 13:00N 31°51' W 119°05'4 8.3
2017-Aug-15 12:29N 31°49' W 119°00'19 8.2
2017-Aug-15 10:14N 31°42' W 118°40'3 7.9
2017-Aug-15 09:47N 31°40' W 118°36'3 7.6
2017-Aug-15 09:22N 31°39' W 118°33'3 7.8
2017-Aug-15 09:00N 31°38' W 118°30'4 7.9
2017-Aug-15 08:28N 31°36' W 118°25'4 8.0
2017-Aug-15 07:56N 31°34' W 118°21'3 7.9
2017-Aug-15 07:30N 31°33' W 118°17'4 7.9
2017-Aug-15 07:00N 31°31' W 118°13'4 7.9
2017-Aug-15 06:30N 31°30' W 118°09'4 8.2
2017-Aug-15 06:00N 31°29' W 118°04'11 7.8
2017-Aug-15 04:37N 31°23' W 117°53'1 5.4
2017-Aug-15 04:30N 31°23' W 117°53'0 0.4
2017-Aug-15 04:00N 31°23' W 117°53'1 1.3
2017-Aug-15 03:30N 31°24' W 117°53'1 1.3
2017-Aug-15 03:00N 31°24' W 117°54'1 1.3
2017-Aug-15 02:30N 31°24' W 117°54'1 1.2
2017-Aug-15 02:00N 31°25' W 117°55'1 1.4
2017-Aug-15 01:30N 31°25' W 117°56'1 1.2
2017-Aug-15 01:00N 31°26' W 117°56'1 1.2
2017-Aug-15 00:30N 31°26' W 117°57'1 1.0
2017-Aug-15 00:00N 31°26' W 117°57'0 1.0
2017-Aug-14 23:30N 31°26' W 117°58'0 0.9
2017-Aug-14 23:00N 31°27' W 117°58'0 1.0
2017-Aug-14 22:30N 31°27' W 117°59'0 0.8
2017-Aug-14 22:00N 31°27' W 117°59'0 0.8
2017-Aug-14 21:30N 31°27' W 117°60'0 0.9
2017-Aug-14 21:00N 31°27' W 118°00'0 0.9
2017-Aug-14 20:30N 31°27' W 118°01'1 1.0
2017-Aug-14 20:00N 31°27' W 118°01'0 0.9
2017-Aug-14 19:30N 31°27' W 118°02'0 0.9
2017-Aug-14 19:00N 31°27' W 118°02'1 1.0
2017-Aug-14 18:30N 31°27' W 118°03'0 0.8
2017-Aug-14 18:00N 31°27' W 118°03'0 0.8
2017-Aug-14 17:30N 31°27' W 118°04'0 0.7
2017-Aug-14 17:00N 31°27' W 118°04'0 0.8
2017-Aug-14 16:30N 31°27' W 118°05'0 0.7
2017-Aug-14 16:00N 31°27' W 118°05'0 0.7
2017-Aug-14 15:30N 31°27' W 118°06'0 0.6
2017-Aug-14 15:00N 31°27' W 118°06'0 0.5
2017-Aug-14 14:30N 31°27' W 118°06'0 0.6
2017-Aug-14 14:00N 31°27' W 118°07'0 0.5
2017-Aug-14 13:30N 31°27' W 118°07'0 0.6
2017-Aug-14 13:00N 31°27' W 118°07'0 0.6
2017-Aug-14 12:30N 31°27' W 118°08'0 0.5
2017-Aug-14 12:00N 31°27' W 118°08'0 0.5
2017-Aug-14 11:30N 31°27' W 118°08'0 0.7
2017-Aug-14 11:00N 31°27' W 118°09'0 0.5
2017-Aug-14 10:30N 31°27' W 118°09'0 0.6
2017-Aug-14 10:00N 31°27' W 118°09'0 0.5
2017-Aug-14 09:30N 31°27' W 118°10'0 0.7
2017-Aug-14 09:00N 31°27' W 118°10'0 0.7
2017-Aug-14 08:30N 31°27' W 118°10'0 0.7
2017-Aug-14 08:00N 31°28' W 118°11'0 0.9
2017-Aug-14 07:30N 31°28' W 118°11'1 1.0
2017-Aug-14 07:00N 31°28' W 118°12'1 1.2
2017-Aug-14 06:30N 31°28' W 118°12'1 1.3
2017-Aug-14 06:00N 31°28' W 118°13'1 1.3
2017-Aug-14 05:30N 31°29' W 118°14'1 1.3
2017-Aug-14 05:00N 31°29' W 118°15'1 1.5
2017-Aug-14 04:30N 31°29' W 118°16'1 1.6
2017-Aug-14 04:00N 31°29' W 118°17'1 1.7
2017-Aug-14 03:30N 31°29' W 118°18'1 1.8
2017-Aug-14 03:00N 31°29' W 118°19'1 1.9
2017-Aug-14 02:30N 31°29' W 118°20'1 1.9
2017-Aug-14 02:00N 31°28' W 118°21'1 1.8
2017-Aug-14 01:30N 31°28' W 118°22'1 1.7
2017-Aug-14 01:00N 31°28' W 118°23'1 1.6
2017-Aug-14 00:30N 31°28' W 118°24'1 1.5
2017-Aug-14 00:00N 31°28' W 118°25'1 1.4
2017-Aug-13 23:30N 31°28' W 118°25'1 1.5
2017-Aug-13 23:00N 31°28' W 118°26'1 1.5
2017-Aug-13 22:30N 31°28' W 118°27'1 1.4
2017-Aug-13 22:00N 31°27' W 118°28'1 1.5
2017-Aug-13 21:30N 31°27' W 118°29'1 1.5
2017-Aug-13 21:00N 31°27' W 118°30'1 1.4
2017-Aug-13 20:30N 31°27' W 118°31'1 1.6
2017-Aug-13 20:00N 31°27' W 118°31'1 1.5
2017-Aug-13 19:30N 31°27' W 118°32'1 1.6
2017-Aug-13 19:00N 31°27' W 118°33'1 1.6
2017-Aug-13 18:30N 31°27' W 118°34'1 1.6
2017-Aug-13 18:00N 31°27' W 118°35'1 1.6
2017-Aug-13 17:30N 31°26' W 118°36'1 1.5
2017-Aug-13 17:00N 31°26' W 118°37'1 1.4
2017-Aug-13 16:30N 31°26' W 118°38'1 1.5
2017-Aug-13 16:00N 31°26' W 118°39'1 1.4
2017-Aug-13 15:30N 31°26' W 118°39'1 1.4
2017-Aug-13 15:00N 31°26' W 118°40'1 1.3
2017-Aug-13 14:30N 31°26' W 118°41'1 1.5
2017-Aug-13 14:00N 31°27' W 118°42'1 1.4
2017-Aug-13 13:30N 31°27' W 118°43'1 1.3
2017-Aug-13 13:00N 31°27' W 118°43'1 1.2
2017-Aug-13 12:30N 31°27' W 118°44'1 1.2
2017-Aug-13 12:00N 31°27' W 118°45'1 1.2
2017-Aug-13 11:29N 31°27' W 118°46'1 1.3
2017-Aug-13 11:00N 31°27' W 118°46'1 1.3
2017-Aug-13 10:30N 31°27' W 118°47'1 1.2
2017-Aug-13 10:00N 31°27' W 118°48'1 1.1
2017-Aug-13 09:30N 31°27' W 118°48'1 1.2
2017-Aug-13 08:59N 31°28' W 118°49'1 1.4
2017-Aug-13 08:28N 31°28' W 118°50'1 1.5
2017-Aug-13 08:00N 31°28' W 118°51'1 1.5
2017-Aug-13 07:29N 31°29' W 118°51'1 1.4
2017-Aug-13 07:00N 31°29' W 118°52'1 1.4
2017-Aug-13 06:30N 31°30' W 118°53'1 1.3
2017-Aug-13 06:00N 31°30' W 118°53'1 2.2
2017-Aug-13 05:30N 31°30' W 118°54'2 3.1
2017-Aug-13 05:00N 31°32' W 118°55'1 1.8
2017-Aug-13 04:29N 31°32' W 118°56'1 1.7
2017-Aug-13 04:00N 31°33' W 118°56'1 2.0
2017-Aug-13 03:28N 31°34' W 118°57'1 2.3
2017-Aug-13 03:00N 31°35' W 118°58'1 2.6
2017-Aug-13 02:30N 31°36' W 118°59'1 1.9
2017-Aug-13 01:57N 31°37' W 118°60'1 2.2
2017-Aug-13 01:27N 31°37' W 119°01'1 2.5
2017-Aug-13 00:59N 31°38' W 119°02'1 2.5
2017-Aug-13 00:30N 31°39' W 119°02'2 2.2
2017-Aug-12 23:43N 31°41' W 119°04'1 2.4
2017-Aug-12 23:28N 31°41' W 119°04'1 2.6
2017-Aug-12 23:00N 31°42' W 119°05'1 2.3
2017-Aug-12 22:30N 31°43' W 119°06'1 1.8
2017-Aug-12 21:56N 31°43' W 119°07'1 1.7
2017-Aug-12 21:30N 31°44' W 119°08'1 1.6
2017-Aug-12 20:58N 31°44' W 119°09'1 1.7
2017-Aug-12 20:28N 31°45' W 119°09'1 1.9
2017-Aug-12 19:55N 31°46' W 119°10'1 2.1
2017-Aug-12 19:30N 31°46' W 119°11'1 2.2
2017-Aug-12 19:00N 31°47' W 119°12'1 2.5
2017-Aug-12 18:30N 31°48' W 119°13'1 1.4
2017-Aug-12 18:00N 31°48' W 119°14'1 1.7
2017-Aug-12 17:30N 31°49' W 119°14'1 1.8
2017-Aug-12 17:00N 31°49' W 119°15'1 2.1
2017-Aug-12 16:30N 31°50' W 119°16'1 2.6
2017-Aug-12 16:00N 31°51' W 119°17'2 4.8
2017-Aug-12 15:30N 31°52' W 119°19'3 5.9
2017-Aug-12 15:00N 31°54' W 119°22'3 5.3
2017-Aug-12 14:30N 31°56' W 119°24'1 1.7
2017-Aug-12 14:00N 31°57' W 119°25'1 1.6
2017-Aug-12 13:30N 31°57' W 119°26'  

Dump ship's entire track history